createdAt,value
2023-03-17T00:02:21.527Z,102207.28
2023-03-17T00:04:52.621Z,102213.28
2023-03-17T00:07:22.812Z,102202.16
2023-03-17T00:09:54.000Z,102200.59
2023-03-17T00:12:23.900Z,102205.78
2023-03-17T00:14:53.826Z,102198.97
2023-03-17T00:17:24.501Z,102207.09
2023-03-17T00:19:54.184Z,102193.28
2023-03-17T00:22:24.196Z,102192.38
2023-03-17T00:24:55.521Z,102186.47
2023-03-17T00:27:25.639Z,102185.66
2023-03-17T00:29:55.442Z,102183.19
2023-03-17T00:32:25.568Z,102184.47
2023-03-17T00:34:55.270Z,102186.28
2023-03-17T00:37:25.392Z,102183.84
2023-03-17T00:39:56.632Z,102186.34
2023-03-17T00:42:28.889Z,102177.56
2023-03-17T00:44:58.577Z,102182.06
2023-03-17T00:47:28.805Z,102182.06
2023-03-17T00:49:58.767Z,102178.94
2023-03-17T00:52:28.846Z,102184.22
2023-03-17T00:55:00.167Z,102184.75
2023-03-17T00:57:30.667Z,102188.88
2023-03-17T01:00:01.052Z,102186.34
2023-03-17T01:02:31.264Z,102190.84
2023-03-17T01:05:06.889Z,102200.34
2023-03-17T01:07:37.429Z,102198.84
2023-03-17T01:10:12.817Z,102192.25
2023-03-17T01:12:43.277Z,102189.66
2023-03-17T01:15:15.596Z,102183.56
2023-03-17T01:17:46.191Z,102185.25
2023-03-17T01:20:18.216Z,102177.63
2023-03-17T01:22:48.317Z,102177.03
2023-03-17T01:25:19.959Z,102169.09
2023-03-17T01:27:50.595Z,102171.91
2023-03-17T01:30:26.346Z,102170.13
2023-03-17T01:32:57.302Z,102166.00
2023-03-17T01:35:29.758Z,102170.59
2023-03-17T01:38:00.336Z,102163.78
2023-03-17T01:40:32.761Z,102161.19
2023-03-17T01:43:05.927Z,102164.50
2023-03-17T01:45:54.168Z,102153.00
2023-03-17T01:48:25.153Z,102159.00
2023-03-17T01:50:55.378Z,102151.13
2023-03-17T01:53:25.730Z,102148.59
2023-03-17T01:55:58.236Z,102155.34
2023-03-17T01:58:28.587Z,102149.84
2023-03-17T02:00:58.550Z,102147.53
2023-03-17T02:03:30.065Z,102153.63
2023-03-17T02:06:00.818Z,102153.34
2023-03-17T02:08:30.959Z,102147.97
2023-03-17T02:11:02.711Z,102141.94
2023-03-17T02:13:33.406Z,102144.81
2023-03-17T02:16:02.947Z,102140.63
2023-03-17T02:18:33.527Z,102146.50
2023-03-17T02:21:17.936Z,102142.50
2023-03-17T02:23:50.167Z,102139.91
2023-03-17T02:26:21.587Z,102136.13
2023-03-17T02:28:51.894Z,102132.44
2023-03-17T02:31:22.176Z,102122.31
2023-03-17T02:33:55.606Z,102120.63
2023-03-17T02:36:25.544Z,102120.09
2023-03-17T02:38:57.354Z,102117.22
2023-03-17T02:41:27.124Z,102113.72
2023-03-17T02:43:57.199Z,102099.28
2023-03-17T02:46:27.502Z,102114.38
2023-03-17T02:48:58.028Z,102117.69
2023-03-17T02:51:27.664Z,102119.19
2023-03-17T02:53:59.077Z,102118.38
2023-03-17T02:56:28.866Z,102132.50
2023-03-17T02:58:58.797Z,102134.28
2023-03-17T03:01:29.779Z,102125.66
2023-03-17T03:04:00.059Z,102126.31
2023-03-17T03:06:29.847Z,102125.41
2023-03-17T03:09:01.262Z,102132.31
2023-03-17T03:11:30.951Z,102121.28
2023-03-17T03:14:00.876Z,102117.78
2023-03-17T03:16:30.846Z,102117.97
2023-03-17T03:19:01.007Z,102119.06
2023-03-17T03:21:31.038Z,102116.38
2023-03-17T03:24:02.485Z,102112.78
2023-03-17T03:26:32.199Z,102123.88
2023-03-17T03:29:02.489Z,102135.28
2023-03-17T03:31:32.230Z,102129.38
2023-03-17T03:34:02.256Z,102122.63
2023-03-17T03:36:32.646Z,102123.44
2023-03-17T03:39:03.986Z,102131.38
2023-03-17T03:41:34.027Z,102128.03
2023-03-17T03:44:04.054Z,102128.13
2023-03-17T03:46:33.673Z,102135.31
2023-03-17T03:49:03.674Z,102128.41
2023-03-17T03:51:33.319Z,102131.44
2023-03-17T03:54:04.801Z,102128.22
2023-03-17T03:56:34.602Z,102137.13
2023-03-17T03:59:04.614Z,102140.53
2023-03-17T04:01:34.325Z,102138.00
2023-03-17T04:04:04.315Z,102133.63
2023-03-17T04:06:34.050Z,102121.78
2023-03-17T04:09:05.625Z,102120.16
2023-03-17T04:11:35.283Z,102127.81
2023-03-17T04:14:06.674Z,102124.28
2023-03-17T04:16:36.419Z,102110.88
2023-03-17T04:19:06.995Z,102120.47
2023-03-17T04:21:36.622Z,102110.94
2023-03-17T04:24:09.289Z,102105.91
2023-03-17T04:26:38.893Z,102100.78
2023-03-17T04:29:10.657Z,102102.94
2023-03-17T04:31:41.048Z,102098.84
2023-03-17T04:34:14.738Z,102101.34
2023-03-17T04:36:44.491Z,102101.34
2023-03-17T04:39:16.459Z,102104.13
2023-03-17T04:41:46.603Z,102101.22
2023-03-17T04:44:16.712Z,102109.84
2023-03-17T04:46:46.881Z,102102.31
2023-03-17T04:49:16.932Z,102095.78
2023-03-17T04:51:46.789Z,102093.25
2023-03-17T04:54:18.303Z,102100.38
2023-03-17T04:56:47.938Z,102089.16
2023-03-17T04:59:17.872Z,102086.63
2023-03-17T05:01:47.544Z,102092.81
2023-03-17T05:04:30.798Z,102099.03
2023-03-17T05:07:01.505Z,102095.53
2023-03-17T05:09:32.927Z,102106.63
2023-03-17T05:12:02.692Z,102103.34
2023-03-17T05:14:32.788Z,102102.69
2023-03-17T05:17:02.364Z,102102.00
2023-03-17T05:19:32.320Z,102099.41
2023-03-17T05:22:01.990Z,102096.22
2023-03-17T05:24:33.482Z,102091.03
2023-03-17T05:27:03.010Z,102092.03
2023-03-17T05:29:33.041Z,102087.72
2023-03-17T05:32:02.685Z,102088.69
2023-03-17T05:34:32.742Z,102079.25
2023-03-17T05:37:02.400Z,102089.88
2023-03-17T05:39:34.001Z,102086.00
2023-03-17T05:42:03.599Z,102091.56
2023-03-17T05:44:33.951Z,102085.81
2023-03-17T05:47:03.525Z,102075.47
2023-03-17T05:49:33.501Z,102081.56
2023-03-17T05:52:03.251Z,102082.56
2023-03-17T05:54:34.697Z,102080.06
2023-03-17T05:57:04.622Z,102083.91
2023-03-17T05:59:34.642Z,102081.44
2023-03-17T06:02:04.608Z,102081.72
2023-03-17T06:04:34.587Z,102082.97
2023-03-17T06:07:05.136Z,102087.63
2023-03-17T06:09:36.824Z,102084.47
2023-03-17T06:12:07.026Z,102099.47
2023-03-17T06:14:37.990Z,102095.38
2023-03-17T06:17:07.675Z,102099.16
2023-03-17T06:19:37.733Z,102094.28
2023-03-17T06:22:07.421Z,102105.94
2023-03-17T06:24:39.302Z,102095.69
2023-03-17T06:27:11.153Z,102096.75
2023-03-17T06:29:41.215Z,102094.41
2023-03-17T06:32:20.231Z,102082.59
2023-03-17T06:34:51.709Z,102079.50
2023-03-17T06:37:21.489Z,102078.75
2023-03-17T06:39:53.027Z,102086.06
2023-03-17T06:42:22.674Z,102078.34
2023-03-17T06:44:53.741Z,102085.44
2023-03-17T06:47:25.912Z,102078.56
2023-03-17T06:49:56.000Z,102072.06
2023-03-17T06:52:25.688Z,102080.03
2023-03-17T06:54:57.180Z,102084.75
2023-03-17T06:57:27.344Z,102098.81
2023-03-17T06:59:57.277Z,102093.75
2023-03-17T07:02:27.138Z,102102.72
2023-03-17T07:04:58.002Z,102104.88
2023-03-17T07:07:27.916Z,102101.72
2023-03-17T07:09:59.791Z,102100.38
2023-03-17T07:12:29.376Z,102091.38
2023-03-17T07:14:59.620Z,102108.75
2023-03-17T07:17:29.200Z,102093.22
2023-03-17T07:19:59.336Z,102101.81
2023-03-17T07:22:29.013Z,102094.19
2023-03-17T07:25:00.639Z,102088.56
2023-03-17T07:27:30.308Z,102079.88
2023-03-17T07:30:02.561Z,102079.13
2023-03-17T07:32:32.310Z,102079.47
2023-03-17T07:35:02.351Z,102077.94
2023-03-17T07:37:32.062Z,102070.81
2023-03-17T07:40:03.730Z,102072.59
2023-03-17T07:42:34.327Z,102075.06
2023-03-17T07:45:05.300Z,102074.38
2023-03-17T07:47:34.936Z,102065.34
2023-03-17T07:50:05.423Z,102059.00
2023-03-17T07:52:35.340Z,102062.59
2023-03-17T07:55:08.812Z,102067.22
2023-03-17T07:57:38.461Z,102064.72
2023-03-17T08:00:10.654Z,102067.63
2023-03-17T08:02:43.260Z,102057.50
2023-03-17T08:05:14.572Z,102054.41
2023-03-17T08:07:48.426Z,102062.84
2023-03-17T08:10:23.047Z,102051.88
2023-03-17T08:12:54.147Z,102062.09
2023-03-17T08:15:36.225Z,102049.97
2023-03-17T08:18:46.546Z,102039.59
2023-03-17T08:21:19.340Z,102036.75
2023-03-17T08:23:49.161Z,102035.25
2023-03-17T08:26:21.213Z,102034.59
2023-03-17T08:28:51.471Z,102034.13
2023-03-17T08:31:22.925Z,102034.16
2023-03-17T08:33:54.328Z,102036.09
2023-03-17T08:36:32.165Z,102019.69
2023-03-17T08:39:07.825Z,102003.97
2023-03-17T08:41:42.408Z,102007.66
2023-03-17T08:44:13.332Z,102006.81
2023-03-17T08:46:43.824Z,102007.78
2023-03-17T08:49:13.894Z,102002.53
2023-03-17T08:51:44.946Z,102003.31
2023-03-17T08:54:15.634Z,102004.63
2023-03-17T08:56:48.008Z,101997.03
2023-03-17T08:59:17.601Z,101997.31
2023-03-17T09:01:47.684Z,101986.34
2023-03-17T09:04:17.239Z,101990.34
2023-03-17T09:07:02.261Z,101996.34
2023-03-17T09:09:33.861Z,101994.91
2023-03-17T09:12:06.566Z,101979.41
2023-03-17T09:14:43.358Z,101974.50
2023-03-17T09:17:15.668Z,101964.56
2023-03-17T09:19:45.425Z,101964.03
2023-03-17T09:22:16.348Z,101966.44
2023-03-17T09:24:46.549Z,101972.53
2023-03-17T09:27:18.000Z,101973.91
2023-03-17T09:29:47.735Z,101971.69
2023-03-17T09:32:18.126Z,101980.09
2023-03-17T09:34:49.666Z,101966.75
2023-03-17T09:37:21.504Z,101956.44
2023-03-17T09:39:51.645Z,101962.97
2023-03-17T09:42:37.424Z,101957.66
2023-03-17T09:45:21.511Z,101959.66
2023-03-17T09:48:06.780Z,101964.00
2023-03-17T09:50:39.939Z,101957.03
2023-03-17T09:53:14.562Z,101964.19
2023-03-17T09:55:45.541Z,101950.28
2023-03-17T09:58:17.104Z,101948.03
2023-03-17T10:00:46.981Z,101954.72
2023-03-17T10:03:18.155Z,101943.06
2023-03-17T10:05:47.991Z,101943.44
2023-03-17T10:08:32.437Z,101928.75
2023-03-17T10:11:04.729Z,101811.00
2023-03-17T10:13:44.200Z,101922.00
2023-03-17T10:16:14.692Z,101924.06
2023-03-17T10:18:48.834Z,101898.03
2023-03-17T10:21:20.468Z,101885.50
2023-03-17T10:23:50.721Z,101870.94
2023-03-17T10:26:28.996Z,101862.16
2023-03-17T10:29:05.759Z,101864.41
2023-03-17T10:31:38.240Z,101859.88
2023-03-17T10:34:14.632Z,101855.59
2023-03-17T10:36:46.169Z,101854.25
2023-03-17T10:39:18.816Z,101851.22
2023-03-17T10:41:53.720Z,101843.97
2023-03-17T10:44:30.938Z,101844.13
2023-03-17T10:47:01.172Z,101837.41
2023-03-17T10:49:36.576Z,101831.84
2023-03-17T10:52:08.317Z,101823.34
2023-03-17T10:54:39.606Z,101819.06
2023-03-17T10:57:10.927Z,101809.56
2023-03-17T10:59:56.643Z,101802.44
2023-03-17T11:02:28.282Z,101809.41
2023-03-17T11:05:01.391Z,101806.38
2023-03-17T11:07:35.748Z,101810.78
2023-03-17T11:10:06.866Z,101807.41
2023-03-17T11:12:37.667Z,101811.88
2023-03-17T11:15:12.510Z,101795.16
2023-03-17T11:17:46.309Z,101799.78
2023-03-17T11:20:29.319Z,101801.69
2023-03-17T11:23:05.191Z,101791.09
2023-03-17T11:25:40.603Z,101794.56
2023-03-17T11:28:17.256Z,101795.31
2023-03-17T11:30:54.042Z,101783.97
2023-03-17T11:33:30.281Z,101780.72
2023-03-17T11:36:03.733Z,101774.03
2023-03-17T11:38:36.516Z,101773.34
2023-03-17T11:41:23.014Z,101763.28
2023-03-17T11:44:05.989Z,101770.34
2023-03-17T11:46:38.540Z,101758.28
2023-03-17T11:49:12.192Z,101758.47
2023-03-17T11:51:51.609Z,101756.91
2023-03-17T11:54:25.111Z,101758.91
2023-03-17T11:56:57.687Z,101767.78
2023-03-17T11:59:31.778Z,101765.28
2023-03-17T12:02:07.488Z,101764.53
2023-03-17T12:04:39.119Z,101764.50
2023-03-17T12:07:14.635Z,101760.16
2023-03-17T12:09:47.636Z,101755.63
2023-03-17T12:12:22.715Z,101746.03
2023-03-17T12:14:53.554Z,101747.63
2023-03-17T12:17:30.310Z,101753.91
2023-03-17T12:20:10.463Z,101748.34
2023-03-17T12:22:43.391Z,101743.19
2023-03-17T12:25:16.813Z,101754.84
2023-03-17T12:27:51.582Z,101746.16
2023-03-17T12:30:29.369Z,101733.03
2023-03-17T12:33:13.377Z,101747.84
2023-03-17T12:35:43.508Z,101760.16
2023-03-17T12:38:15.232Z,101760.84
2023-03-17T12:40:53.133Z,101765.22
2023-03-17T12:43:36.644Z,101762.59
2023-03-17T12:46:22.634Z,101769.84
2023-03-17T12:49:13.768Z,101748.59
2023-03-17T12:51:49.124Z,101748.72
2023-03-17T12:54:20.621Z,101748.97
2023-03-17T12:56:51.015Z,101743.69
2023-03-17T12:59:24.411Z,101750.78
2023-03-17T13:01:58.982Z,101758.91
2023-03-17T13:04:32.690Z,101754.66
2023-03-17T13:07:06.490Z,101755.78
2023-03-17T13:09:48.039Z,101739.28
2023-03-17T13:12:38.457Z,101735.25
2023-03-17T13:15:23.444Z,101723.97
2023-03-17T13:18:12.864Z,101717.88
2023-03-17T13:20:44.997Z,101708.81
2023-03-17T13:23:19.119Z,101710.53
2023-03-17T13:25:53.740Z,101707.78
2023-03-17T13:28:28.393Z,101708.81
2023-03-17T13:31:09.084Z,101690.22
2023-03-17T13:33:43.810Z,101705.28
2023-03-17T13:36:28.771Z,101684.25
2023-03-17T13:39:25.164Z,101670.47
2023-03-17T13:42:17.711Z,101657.28
2023-03-17T13:44:55.324Z,101670.16
2023-03-17T13:47:30.182Z,101672.47
2023-03-17T13:50:04.719Z,101663.38
2023-03-17T13:52:36.263Z,101643.84
2023-03-17T13:55:30.239Z,101648.16
2023-03-17T13:58:15.932Z,101648.06
2023-03-17T14:00:47.123Z,101645.50
2023-03-17T14:03:19.550Z,101641.97
2023-03-17T14:05:51.672Z,101633.22
2023-03-17T14:08:27.017Z,101634.97
2023-03-17T14:11:01.598Z,101632.38
2023-03-17T14:13:37.696Z,101639.47
2023-03-17T14:16:13.917Z,101636.84
2023-03-17T14:18:46.673Z,101636.72
2023-03-17T14:21:23.826Z,101625.19
2023-03-17T14:23:57.466Z,101609.19
2023-03-17T14:26:29.874Z,101623.38
2023-03-17T14:29:00.838Z,101618.91
2023-03-17T14:31:31.025Z,101614.50
2023-03-17T14:34:01.571Z,101621.53
2023-03-17T14:36:34.330Z,101615.22
2023-03-17T14:39:04.725Z,101609.81
2023-03-17T14:41:36.650Z,101616.03
2023-03-17T14:44:09.935Z,101613.34
2023-03-17T14:46:41.433Z,101617.72
2023-03-17T14:49:16.914Z,101614.16
2023-03-17T14:51:47.005Z,101616.72
2023-03-17T14:54:19.624Z,101608.81
2023-03-17T14:56:53.050Z,101609.72
2023-03-17T14:59:25.575Z,101604.41
2023-03-17T15:01:56.889Z,101603.53
2023-03-17T15:04:29.736Z,101614.09
2023-03-17T15:07:00.477Z,101600.00
2023-03-17T15:09:33.463Z,101600.00
2023-03-17T15:12:07.126Z,101593.81
2023-03-17T15:14:39.652Z,101592.13
2023-03-17T15:17:20.859Z,101584.16
2023-03-17T15:19:52.792Z,101574.41
2023-03-17T15:22:27.004Z,101584.16
2023-03-17T15:25:01.253Z,101578.78
2023-03-17T15:27:33.533Z,101579.63
2023-03-17T15:30:03.837Z,101576.94
2023-03-17T15:32:33.645Z,101584.88
2023-03-17T15:35:05.410Z,101594.56
2023-03-17T15:37:35.798Z,101583.00
2023-03-17T15:40:07.809Z,101595.31
2023-03-17T15:42:41.043Z,101597.91
2023-03-17T15:45:13.193Z,101594.31
2023-03-17T15:47:43.952Z,101596.97
2023-03-17T15:50:19.032Z,101594.22
2023-03-17T15:52:48.683Z,101593.28
2023-03-17T15:55:21.692Z,101600.25
2023-03-17T15:57:55.931Z,101593.13
2023-03-17T16:00:30.118Z,101586.91
2023-03-17T16:03:02.913Z,101595.66
2023-03-17T16:05:34.264Z,101592.94
2023-03-17T16:08:04.366Z,101592.88
2023-03-17T16:10:34.894Z,101582.31
2023-03-17T16:13:09.066Z,101583.16
2023-03-17T16:15:41.157Z,101582.19
2023-03-17T16:18:14.085Z,101591.81
2023-03-17T16:20:45.314Z,101589.16
2023-03-17T16:23:17.115Z,101597.06
2023-03-17T16:25:47.573Z,101596.09
2023-03-17T16:28:19.528Z,101595.16
2023-03-17T16:30:50.356Z,101594.13
2023-03-17T16:33:23.707Z,101590.44
2023-03-17T16:35:55.938Z,101592.19
2023-03-17T16:38:26.268Z,101589.53
2023-03-17T16:40:56.865Z,101594.69
2023-03-17T16:43:29.077Z,101580.56
2023-03-17T16:45:59.758Z,101587.50
2023-03-17T16:48:29.740Z,101575.09
2023-03-17T16:51:00.273Z,101585.59
2023-03-17T16:53:29.939Z,101590.00
2023-03-17T16:56:00.080Z,101586.56
2023-03-17T16:58:32.468Z,101576.81
2023-03-17T17:01:03.821Z,101578.53
2023-03-17T17:03:33.459Z,101576.72
2023-03-17T17:06:03.633Z,101572.25
2023-03-17T17:08:33.483Z,101561.63
2023-03-17T17:11:03.459Z,101551.84
2023-03-17T17:13:34.780Z,101566.78
2023-03-17T17:16:05.528Z,101567.66
2023-03-17T17:18:37.803Z,101570.19
2023-03-17T17:21:08.227Z,101571.09
2023-03-17T17:23:38.137Z,101566.66
2023-03-17T17:26:08.365Z,101573.56
2023-03-17T17:28:41.265Z,101577.84
2023-03-17T17:31:13.235Z,101588.19
2023-03-17T17:33:42.815Z,101589.00
2023-03-17T17:36:15.934Z,101582.78
2023-03-17T17:38:46.389Z,101572.09
2023-03-17T17:41:17.354Z,101579.88
2023-03-17T17:43:48.691Z,101577.09
2023-03-17T17:46:20.885Z,101572.50
2023-03-17T17:48:50.944Z,101576.84
2023-03-17T17:51:21.237Z,101578.47
2023-03-17T17:53:51.936Z,101577.47
2023-03-17T17:56:21.922Z,101580.00
2023-03-17T17:58:52.892Z,101579.16
2023-03-17T18:01:22.974Z,101586.97
2023-03-17T18:03:52.793Z,101588.63
2023-03-17T18:06:22.893Z,101591.97
2023-03-17T18:08:52.746Z,101594.59
2023-03-17T18:11:22.800Z,101567.59
2023-03-17T18:13:54.584Z,101604.72
2023-03-17T18:16:27.033Z,101599.47
2023-03-17T18:18:58.009Z,101605.59
2023-03-17T18:21:28.024Z,101603.75
2023-03-17T18:23:58.136Z,101608.13
2023-03-17T18:26:28.837Z,101604.41
2023-03-17T18:29:00.463Z,101613.97
2023-03-17T18:31:34.285Z,101596.44
2023-03-17T18:34:06.631Z,101597.22
2023-03-17T18:36:36.719Z,101596.44
2023-03-17T18:39:06.740Z,101600.72
2023-03-17T18:41:36.703Z,101594.66
2023-03-17T18:44:10.433Z,101591.97
2023-03-17T18:46:40.326Z,101590.13
2023-03-17T18:49:10.274Z,101591.81
2023-03-17T18:51:40.211Z,101591.81
2023-03-17T18:54:09.952Z,101592.72
2023-03-17T18:56:39.914Z,101587.34
2023-03-17T18:59:10.973Z,101584.84
2023-03-17T19:01:41.074Z,101583.97
2023-03-17T19:04:10.805Z,101582.94
2023-03-17T19:06:42.829Z,101581.16
2023-03-17T19:09:13.263Z,101581.81
2023-03-17T19:11:43.522Z,101585.28
2023-03-17T19:14:14.652Z,101581.72
2023-03-17T19:16:45.288Z,101586.38
2023-03-17T19:19:15.132Z,101580.41
2023-03-17T19:21:45.254Z,101582.03
2023-03-17T19:24:15.743Z,101579.22
2023-03-17T19:26:45.703Z,101577.38
2023-03-17T19:29:17.142Z,101573.09
2023-03-17T19:31:48.596Z,101569.59
2023-03-17T19:34:18.682Z,101566.00
2023-03-17T19:36:48.973Z,101560.97
2023-03-17T19:39:18.984Z,101564.41
2023-03-17T19:41:53.545Z,101564.34
2023-03-17T19:44:25.145Z,101560.00
2023-03-17T19:46:55.075Z,101560.03
2023-03-17T19:49:24.876Z,101562.63
2023-03-17T19:51:55.059Z,101545.03
2023-03-17T19:54:24.949Z,101546.53
2023-03-17T19:56:54.978Z,101559.66
2023-03-17T19:59:26.186Z,101539.59
2023-03-17T20:01:56.414Z,101552.78
2023-03-17T20:04:26.063Z,101543.31
2023-03-17T20:06:57.354Z,101538.03
2023-03-17T20:09:27.590Z,101538.94
2023-03-17T20:11:57.642Z,101544.03
2023-03-17T20:14:29.163Z,101542.50
2023-03-17T20:16:59.227Z,101548.69
2023-03-17T20:19:29.425Z,101544.50
2023-03-17T20:22:00.004Z,101542.56
2023-03-17T20:24:30.404Z,101546.06
2023-03-17T20:27:00.619Z,101537.47
2023-03-17T20:29:32.164Z,101537.50
2023-03-17T20:32:02.476Z,101533.09
2023-03-17T20:34:34.886Z,101527.03
2023-03-17T20:37:05.563Z,101526.09
2023-03-17T20:39:35.163Z,101513.66
2023-03-17T20:42:10.493Z,101518.94
2023-03-17T20:44:42.154Z,101525.09
2023-03-17T20:47:14.401Z,101519.78
2023-03-17T20:49:44.211Z,101516.16
2023-03-17T20:52:16.250Z,101520.53
2023-03-17T20:54:45.972Z,101525.78
2023-03-17T20:57:16.468Z,101512.75
2023-03-17T20:59:48.142Z,101517.09
2023-03-17T21:02:20.073Z,101518.78
2023-03-17T21:04:49.922Z,101513.66
2023-03-17T21:07:21.428Z,101513.50
2023-03-17T21:09:51.910Z,101517.03
2023-03-17T21:12:22.402Z,101507.38
2023-03-17T21:14:53.601Z,101509.16
2023-03-17T21:17:26.292Z,101511.78
2023-03-17T21:19:57.220Z,101513.50
2023-03-17T21:22:27.294Z,101509.09
2023-03-17T21:24:57.501Z,101514.34
2023-03-17T21:27:33.362Z,101502.94
2023-03-17T21:30:06.544Z,101510.69
2023-03-17T21:32:39.373Z,101514.97
2023-03-17T21:35:13.040Z,101510.56
2023-03-17T21:37:44.994Z,101517.44
2023-03-17T21:40:17.161Z,101501.50
2023-03-17T21:42:50.592Z,101499.59
2023-03-17T21:45:24.228Z,101499.63
2023-03-17T21:47:55.757Z,101505.59
2023-03-17T21:50:30.190Z,101445.75
2023-03-17T21:53:05.973Z,101502.69
2023-03-17T21:55:42.411Z,101497.41
2023-03-17T21:58:14.147Z,101508.97
2023-03-17T22:00:47.072Z,101512.41
2023-03-17T22:03:18.163Z,101508.06
2023-03-17T22:05:49.693Z,101497.78
2023-03-17T22:08:22.502Z,101499.66
2023-03-17T22:10:54.576Z,101494.47
2023-03-17T22:13:26.766Z,101495.31
2023-03-17T22:16:02.650Z,101497.22
2023-03-17T22:18:34.032Z,101496.25
2023-03-17T22:21:04.349Z,101490.00
2023-03-17T22:23:40.009Z,101485.75
2023-03-17T22:26:10.740Z,101476.13
2023-03-17T22:28:41.054Z,101496.50
2023-03-17T22:31:16.667Z,101484.13
2023-03-17T22:33:47.132Z,101475.22
2023-03-17T22:36:18.233Z,101477.03
2023-03-17T22:38:50.412Z,101483.25
2023-03-17T22:41:21.305Z,101489.28
2023-03-17T22:43:51.713Z,101481.44
2023-03-17T22:46:23.787Z,101491.88
2023-03-17T22:48:54.555Z,101479.78
2023-03-17T22:51:25.812Z,101482.53
2023-03-17T22:53:56.286Z,101485.34
2023-03-17T22:56:26.837Z,101488.66
2023-03-17T22:58:57.502Z,101488.53
2023-03-17T23:01:29.228Z,101490.28
2023-03-17T23:03:59.461Z,101477.22
2023-03-17T23:06:29.195Z,101478.91
2023-03-17T23:08:59.117Z,101476.25
2023-03-17T23:11:28.833Z,101476.28
2023-03-17T23:13:58.857Z,101478.19
2023-03-17T23:16:30.316Z,101469.28
2023-03-17T23:19:00.685Z,101464.22
2023-03-17T23:21:31.120Z,101463.34
2023-03-17T23:24:02.513Z,101464.97
2023-03-17T23:26:32.342Z,101457.97
2023-03-17T23:29:02.276Z,101458.75
2023-03-17T23:31:34.368Z,101457.94
2023-03-17T23:34:04.642Z,101455.31
2023-03-17T23:36:35.335Z,101456.91
2023-03-17T23:39:05.333Z,101451.72
2023-03-17T23:41:35.001Z,101456.06
2023-03-17T23:44:05.849Z,101457.88
2023-03-17T23:46:36.889Z,101453.44
2023-03-17T23:49:07.616Z,101455.97
2023-03-17T23:51:37.250Z,101460.34
2023-03-17T23:54:08.069Z,101458.50
2023-03-17T23:56:37.888Z,101459.47
2023-03-17T23:59:08.439Z,101456.91
